createdAt,value
2019-03-19T00:02:30.059Z,67.38
2019-03-19T00:07:34.448Z,66.73
2019-03-19T00:12:38.810Z,66.45
2019-03-19T00:17:43.199Z,67.00
2019-03-19T00:22:47.594Z,67.27
2019-03-19T00:27:53.021Z,66.68
2019-03-19T00:32:57.337Z,66.23
2019-03-19T00:38:01.674Z,67.18
2019-03-19T00:43:06.064Z,67.23
2019-03-19T00:48:10.416Z,67.55
2019-03-19T00:53:14.985Z,67.13
2019-03-19T00:58:19.339Z,67.93
2019-03-19T01:03:23.680Z,68.42
2019-03-19T01:08:29.090Z,68.82
2019-03-19T01:13:33.437Z,69.98
2019-03-19T01:18:37.776Z,69.58
2019-03-19T01:23:42.164Z,68.98
2019-03-19T01:28:46.899Z,68.13
2019-03-19T01:33:51.262Z,66.15
2019-03-19T01:38:55.625Z,65.86
2019-03-19T01:44:00.000Z,65.56
2019-03-19T01:49:05.461Z,67.05
2019-03-19T01:54:09.805Z,66.60
2019-03-19T01:59:14.181Z,66.20
2019-03-19T02:04:18.647Z,66.12
2019-03-19T02:09:23.027Z,66.23
2019-03-19T02:14:27.435Z,66.49
2019-03-19T02:19:32.072Z,67.08
2019-03-19T02:24:36.434Z,67.06
2019-03-19T02:29:40.782Z,68.11
2019-03-19T02:34:45.137Z,68.46
2019-03-19T02:39:49.508Z,67.84
2019-03-19T02:44:53.898Z,67.75
2019-03-19T02:49:58.260Z,68.75
2019-03-19T02:55:02.627Z,69.32
2019-03-19T03:00:19.429Z,68.88
2019-03-19T03:05:23.797Z,68.22
2019-03-19T03:10:28.162Z,68.02
2019-03-19T03:15:32.638Z,66.85
2019-03-19T03:20:36.993Z,67.88
2019-03-19T03:25:41.347Z,68.00
2019-03-19T03:30:45.692Z,67.47
2019-03-19T03:35:50.036Z,68.58
2019-03-19T03:40:54.421Z,69.50
2019-03-19T03:45:58.755Z,69.59
2019-03-19T03:51:03.118Z,69.35
2019-03-19T03:56:07.483Z,68.93
2019-03-19T04:01:11.835Z,69.91
2019-03-19T04:06:16.173Z,68.28
2019-03-19T04:11:20.574Z,68.62
2019-03-19T04:16:25.027Z,69.13
2019-03-19T04:21:29.379Z,68.86
2019-03-19T04:26:33.730Z,68.51
2019-03-19T04:31:38.116Z,68.69
2019-03-19T04:36:43.542Z,68.89
2019-03-19T04:41:47.937Z,68.62
2019-03-19T04:46:52.357Z,67.75
2019-03-19T04:51:56.729Z,68.25
2019-03-19T04:57:01.081Z,68.46
2019-03-19T05:02:05.660Z,69.32
2019-03-19T05:07:10.035Z,69.63
2019-03-19T05:12:14.381Z,69.40
2019-03-19T05:17:18.744Z,69.62
2019-03-19T05:22:23.130Z,69.61
2019-03-19T05:27:37.047Z,69.83
2019-03-19T05:32:33.551Z,69.79
2019-03-19T05:37:37.932Z,71.09
2019-03-19T05:42:42.360Z,69.22
2019-03-19T05:47:46.689Z,70.89
2019-03-19T05:52:51.067Z,69.42
2019-03-19T05:57:55.417Z,70.37
2019-03-19T06:02:59.929Z,69.35
2019-03-19T06:08:04.359Z,70.76
2019-03-19T06:13:08.732Z,70.03
2019-03-19T06:18:13.102Z,70.37
2019-03-19T06:23:17.477Z,70.72
2019-03-19T06:28:22.639Z,69.69
2019-03-19T06:33:27.248Z,69.75
2019-03-19T06:38:31.596Z,70.16
2019-03-19T06:43:36.933Z,70.83
2019-03-19T06:48:41.276Z,69.40
2019-03-19T06:53:45.676Z,69.78
2019-03-19T06:58:50.004Z,69.42
2019-03-19T07:03:54.380Z,68.13
2019-03-19T07:08:58.740Z,68.21
2019-03-19T07:14:03.095Z,67.48
2019-03-19T07:19:07.475Z,67.68
2019-03-19T07:24:11.854Z,69.52
2019-03-19T07:29:16.230Z,70.53
2019-03-19T07:34:20.584Z,73.59
2019-03-19T07:39:24.964Z,74.63
2019-03-19T07:44:29.319Z,73.59
2019-03-19T07:49:33.667Z,70.33
2019-03-19T07:54:38.764Z,67.60
2019-03-19T07:59:43.111Z,68.88
2019-03-19T08:04:47.508Z,66.27
2019-03-19T08:09:51.859Z,66.30
2019-03-19T08:14:56.223Z,66.47
2019-03-19T08:20:00.623Z,66.47
2019-03-19T08:25:08.821Z,66.66
2019-03-19T08:30:24.476Z,67.70
2019-03-19T08:35:28.468Z,68.24
2019-03-19T08:40:32.835Z,71.45
2019-03-19T08:45:37.229Z,74.44
2019-03-19T08:50:41.603Z,75.83
2019-03-19T08:55:45.947Z,79.45
2019-03-19T09:00:50.312Z,77.98
2019-03-19T09:05:54.835Z,76.16
2019-03-19T09:10:59.179Z,74.72
2019-03-19T09:16:03.637Z,74.95
2019-03-19T09:21:09.120Z,74.68
2019-03-19T09:26:13.466Z,74.65
2019-03-19T09:31:17.911Z,75.72
2019-03-19T09:36:22.279Z,73.91
2019-03-19T09:41:26.669Z,73.76
2019-03-19T09:46:31.015Z,72.17
2019-03-19T09:51:35.463Z,71.30
2019-03-19T09:56:39.830Z,67.09
2019-03-19T10:01:44.207Z,68.43
2019-03-19T10:06:48.579Z,66.56
2019-03-19T10:11:52.932Z,63.91
2019-03-19T10:16:57.340Z,63.17
2019-03-19T10:22:01.680Z,61.53
2019-03-19T10:27:06.022Z,63.15
2019-03-19T10:32:10.358Z,62.19
2019-03-19T10:37:14.686Z,60.39
2019-03-19T10:42:19.211Z,60.48
2019-03-19T10:47:23.704Z,58.77
2019-03-19T10:52:28.026Z,58.32
2019-03-19T10:57:32.399Z,53.78
2019-03-19T11:02:36.768Z,51.39
2019-03-19T11:07:41.139Z,50.84
2019-03-19T11:12:45.484Z,51.19
2019-03-19T11:17:49.896Z,51.20
2019-03-19T11:22:54.237Z,51.42
2019-03-19T11:27:58.607Z,50.51
2019-03-19T11:33:03.102Z,50.60
2019-03-19T11:38:08.203Z,51.82
2019-03-19T11:43:12.595Z,52.81
2019-03-19T11:48:16.929Z,53.14
2019-03-19T11:53:21.372Z,53.35
2019-03-19T11:58:25.710Z,51.73
2019-03-19T12:03:30.059Z,51.44
2019-03-19T12:08:34.558Z,51.55
2019-03-19T12:13:38.881Z,49.78
2019-03-19T12:18:43.446Z,46.64
2019-03-19T12:23:47.828Z,48.19
2019-03-19T12:28:52.168Z,48.86
2019-03-19T12:33:56.531Z,47.84
2019-03-19T12:39:00.916Z,48.61
2019-03-19T12:44:06.430Z,49.81
2019-03-19T12:49:10.785Z,49.76
2019-03-19T12:54:15.185Z,48.39
2019-03-19T12:59:20.678Z,47.79
2019-03-19T13:04:25.115Z,49.66
2019-03-19T13:09:29.464Z,51.63
2019-03-19T13:14:33.826Z,52.51
2019-03-19T13:19:38.222Z,53.71
2019-03-19T13:24:42.566Z,54.79
2019-03-19T13:29:46.931Z,54.89
2019-03-19T13:34:51.296Z,54.78
2019-03-19T13:39:55.633Z,53.19
2019-03-19T13:45:00.035Z,52.41
2019-03-19T13:50:07.200Z,48.40
2019-03-19T13:55:14.743Z,48.57
2019-03-19T14:00:19.804Z,47.99
2019-03-19T14:05:24.188Z,47.93
2019-03-19T14:10:28.653Z,47.71
2019-03-19T14:15:34.045Z,48.79
2019-03-19T14:39:46.992Z,55.56
2019-03-19T14:44:51.418Z,57.21
2019-03-19T14:49:55.737Z,59.70
2019-03-19T14:55:00.071Z,60.85
2019-03-19T15:00:10.465Z,59.71
2019-03-19T15:05:15.517Z,59.71
2019-03-19T15:10:23.563Z,59.52
2019-03-19T15:15:27.958Z,59.33
2019-03-19T15:20:32.278Z,58.38
2019-03-19T15:25:36.721Z,57.19
2019-03-19T15:30:41.047Z,56.87
2019-03-19T15:35:45.429Z,57.97
2019-03-19T15:40:49.746Z,57.58
2019-03-19T15:45:54.122Z,57.66
2019-03-19T15:50:58.546Z,57.97
2019-03-19T15:56:02.892Z,57.67
2019-03-19T16:01:07.255Z,58.07
2019-03-19T16:06:11.614Z,58.07
2019-03-19T16:11:16.052Z,58.60
2019-03-19T16:16:20.416Z,58.82
2019-03-19T16:21:24.791Z,57.95
2019-03-19T16:26:29.153Z,58.24
2019-03-19T16:31:33.495Z,58.81
2019-03-19T16:36:37.878Z,58.16
2019-03-19T16:41:42.335Z,57.92
2019-03-19T16:46:46.672Z,57.82
2019-03-19T16:51:51.037Z,58.39
2019-03-19T16:56:55.548Z,58.36
2019-03-19T17:02:01.876Z,57.75
2019-03-19T17:07:06.151Z,58.18
2019-03-19T17:12:10.603Z,58.84
2019-03-19T17:17:15.045Z,59.33
2019-03-19T17:22:19.714Z,59.70
2019-03-19T17:27:24.170Z,59.48
2019-03-19T17:32:28.538Z,59.96
2019-03-19T17:37:32.941Z,61.59
2019-03-19T17:42:37.312Z,61.56
2019-03-19T17:47:41.802Z,61.54
2019-03-19T17:52:46.949Z,62.19
2019-03-19T17:57:51.519Z,63.52
2019-03-19T18:02:55.935Z,62.90
2019-03-19T18:08:01.674Z,62.76
2019-03-19T18:13:06.734Z,63.86
2019-03-19T18:18:11.345Z,63.36
2019-03-19T18:23:15.782Z,64.01
2019-03-19T18:28:20.183Z,64.02
2019-03-19T18:33:24.534Z,64.00
2019-03-19T18:38:28.906Z,64.52
2019-03-19T18:43:33.284Z,65.83
2019-03-19T18:48:37.681Z,65.26
2019-03-19T18:53:42.036Z,64.29
2019-03-19T18:58:46.400Z,64.41
2019-03-19T19:03:50.765Z,64.54
2019-03-19T19:08:55.296Z,65.06
2019-03-19T19:13:59.663Z,64.15
2019-03-19T19:19:04.117Z,63.99
2019-03-19T19:24:10.701Z,63.92
2019-03-19T19:29:15.354Z,63.87
2019-03-19T19:34:19.861Z,63.81
2019-03-19T19:39:24.323Z,64.80
2019-03-19T19:44:29.945Z,64.56
2019-03-19T19:49:34.487Z,64.43
2019-03-19T19:54:38.947Z,64.32
2019-03-19T19:59:43.626Z,64.41
2019-03-19T20:04:48.044Z,64.57
2019-03-19T20:09:52.721Z,64.36
2019-03-19T20:14:57.090Z,64.63
2019-03-19T20:20:01.437Z,64.23
2019-03-19T20:25:06.807Z,64.98
2019-03-19T20:30:27.544Z,65.37
2019-03-19T20:35:31.878Z,65.83
2019-03-19T20:40:36.228Z,64.79
2019-03-19T20:45:40.563Z,65.09
2019-03-19T20:50:45.004Z,65.01
2019-03-19T20:55:50.315Z,65.91
2019-03-19T21:00:54.675Z,65.23
2019-03-19T21:05:59.321Z,65.31
2019-03-19T21:11:03.727Z,64.23
2019-03-19T21:16:08.157Z,63.65
2019-03-19T21:21:12.520Z,64.23
2019-03-19T21:26:16.926Z,63.81
2019-03-19T21:31:21.259Z,64.97
2019-03-19T21:36:25.722Z,64.15
2019-03-19T21:41:30.083Z,63.62
2019-03-19T21:46:34.416Z,63.80
2019-03-19T21:51:38.878Z,63.81
2019-03-19T21:56:43.318Z,63.42
2019-03-19T22:01:48.462Z,63.47
2019-03-19T22:06:52.843Z,63.29
2019-03-19T22:11:57.300Z,63.44
2019-03-19T22:17:01.690Z,63.78
2019-03-19T22:22:07.439Z,64.11
2019-03-19T22:27:12.012Z,65.05
2019-03-19T22:32:16.666Z,65.62
2019-03-19T22:37:20.977Z,64.90
2019-03-19T22:42:25.336Z,65.25
2019-03-19T22:47:29.680Z,65.67
2019-03-19T22:52:34.049Z,65.42
2019-03-19T22:57:39.494Z,65.23
2019-03-19T23:02:43.886Z,65.80
2019-03-19T23:07:48.237Z,65.89
2019-03-19T23:12:52.692Z,65.10
2019-03-19T23:17:57.105Z,66.00
2019-03-19T23:23:01.514Z,66.37
2019-03-19T23:28:05.863Z,66.58
2019-03-19T23:33:10.218Z,67.80
2019-03-19T23:38:14.693Z,68.17
2019-03-19T23:43:19.042Z,68.03
2019-03-19T23:48:23.460Z,67.31
2019-03-19T23:53:27.831Z,67.61
2019-03-19T23:58:32.260Z,67.65
